Time;durP1;ratioP1;P1;durP2;ratioP2;P2;SDS_P1;SDS_P2;PMS_P1;PMS_P2;Temp;Humidity;BMP_temperature;BMP_pressure;BME280_temperature;BME280_humidity;BME280_pressure;Samples;Min_cycle;Max_cycle;Signal;HPM_P1;HPM_P2
2022/06/18 00:01:33;;;;;;;3.17;2.22;;;27.10;88.70;;;;;;5026498;28;20239;-35
2022/06/18 00:04:11;;;;;;;4.85;2.25;;;27.10;88.50;;;;;;5025913;28;20266;-35
2022/06/18 00:06:52;;;;;;;2.83;2.10;;;27.00;88.60;;;;;;5027346;28;20240;-35
2022/06/18 00:09:33;;;;;;;3.13;2.35;;;27.00;89.00;;;;;;5012634;28;20777;-36
2022/06/18 00:15:02;;;;;;;3.33;2.10;;;27.00;89.20;;;;;;5027701;28;20219;-35
2022/06/18 00:17:31;;;;;;;3.17;2.40;;;26.90;88.90;;;;;;5027145;28;20188;-36
2022/06/18 00:20:02;;;;;;;4.32;2.22;;;26.90;89.00;;;;;;5027919;28;20244;-36
2022/06/18 00:22:29;;;;;;;3.90;2.17;;;26.80;89.20;;;;;;5061847;28;20865;-36
2022/06/18 00:24:57;;;;;;;2.55;2.35;;;26.80;89.30;;;;;;5022018;28;20237;-36
2022/06/18 00:27:28;;;;;;;2.60;2.40;;;26.80;89.20;;;;;;5011619;28;20229;-36
2022/06/18 00:29:55;;;;;;;5.05;2.55;;;26.80;89.50;;;;;;5026377;28;20720;-36
2022/06/18 00:32:22;;;;;;;2.38;2.15;;;26.70;89.60;;;;;;5011196;28;20221;-36
2022/06/18 00:34:50;;;;;;;4.35;2.40;;;26.70;89.60;;;;;;5011127;28;20201;-35
2022/06/18 00:37:20;;;;;;;2.78;2.40;;;26.70;89.60;;;;;;5018548;28;20589;-36
2022/06/18 00:39:50;;;;;;;3.67;2.60;;;26.70;89.70;;;;;;5031387;28;20279;-36
2022/06/18 00:42:28;;;;;;;4.40;2.25;;;26.60;89.70;;;;;;5028610;28;20205;-35
2022/06/18 00:44:59;;;;;;;2.35;2.15;;;26.60;90.10;;;;;;5026712;28;20715;-35
2022/06/18 00:47:50;;;;;;;4.85;2.10;;;26.60;89.90;;;;;;5011457;28;20640;-36
2022/06/18 00:50:29;;;;;;;2.55;2.35;;;26.50;90.00;;;;;;5016939;28;20228;-36
2022/06/18 00:53:11;;;;;;;3.45;2.63;;;26.50;90.00;;;;;;5051222;28;20299;-35
2022/06/18 00:55:57;;;;;;;3.25;2.35;;;26.40;90.00;;;;;;5037576;28;20247;-36
2022/06/18 00:58:35;;;;;;;2.40;2.20;;;26.40;90.00;;;;;;5029793;28;20581;-35
2022/06/18 01:01:16;;;;;;;3.17;2.60;;;26.30;90.20;;;;;;5030224;28;20734;-35
2022/06/18 01:03:45;;;;;;;3.65;2.30;;;26.30;90.20;;;;;;5030841;28;20201;-36
2022/06/18 01:06:26;;;;;;;3.28;2.20;;;26.30;90.10;;;;;;5062766;28;20596;-35
2022/06/18 01:09:17;;;;;;;4.82;2.42;;;26.20;90.30;;;;;;5062665;28;20224;-36
2022/06/18 01:11:46;;;;;;;2.35;2.15;;;26.20;90.40;;;;;;5030139;28;20201;-36
2022/06/18 01:14:20;;;;;;;2.75;2.15;;;26.10;90.20;;;;;;5031367;28;20620;-35
2022/06/18 01:16:51;;;;;;;3.78;2.42;;;26.10;90.20;;;;;;4999432;28;20578;-36
2022/06/18 01:19:33;;;;;;;4.40;2.50;;;26.10;90.30;;;;;;5031217;28;20299;-35
2022/06/18 01:22:12;;;;;;;3.67;2.40;;;26.10;90.70;;;;;;5029106;28;20763;-35
2022/06/18 01:24:45;;;;;;;3.30;2.33;;;26.00;90.60;;;;;;5031365;28;20263;-36
2022/06/18 01:27:17;;;;;;;4.25;2.42;;;26.00;90.50;;;;;;5018456;28;20201;-36
2022/06/18 01:29:45;;;;;;;3.22;2.28;;;25.90;90.40;;;;;;5030131;28;20228;-35
2022/06/18 01:32:16;;;;;;;3.83;2.20;;;25.90;90.40;;;;;;5029431;28;20583;-36
2022/06/18 01:34:45;;;;;;;4.03;2.40;;;25.90;90.40;;;;;;5031186;28;20300;-35
2022/06/18 01:37:16;;;;;;;3.53;2.55;;;25.90;90.50;;;;;;5029751;28;20580;-35
2022/06/18 01:39:50;;;;;;;3.30;2.50;;;25.90;90.80;;;;;;5032713;28;20228;-35
2022/06/18 01:42:29;;;;;;;2.60;2.15;;;25.80;90.50;;;;;;5038355;28;20208;-36
2022/06/18 01:45:03;;;;;;;3.13;2.20;;;25.80;90.60;;;;;;5035116;28;20231;-36
2022/06/18 01:47:41;;;;;;;2.75;2.40;;;25.80;90.50;;;;;;5030520;28;20231;-36
2022/06/18 01:50:39;;;;;;;2.90;2.40;;;25.70;90.70;;;;;;5032475;28;20228;-36
2022/06/18 01:53:24;;;;;;;2.80;2.55;;;25.70;90.90;;;;;;5031115;28;20193;-36
2022/06/18 01:55:58;;;;;;;3.60;2.60;;;25.70;90.70;;;;;;5031355;28;20763;-35
2022/06/18 01:58:41;;;;;;;4.18;2.15;;;25.60;90.60;;;;;;5042430;28;20236;-35
2022/06/18 02:01:18;;;;;;;5.07;2.85;;;25.60;90.70;;;;;;5051072;28;20335;-36
2022/06/18 02:03:52;;;;;;;3.00;2.17;;;25.60;90.70;;;;;;5038825;28;20267;-36
2022/06/18 02:06:20;;;;;;;4.25;2.78;;;25.50;90.80;;;;;;5027681;28;20213;-36
2022/06/18 02:08:47;;;;;;;3.20;2.35;;;25.50;90.60;;;;;;5030293;28;20197;-36
2022/06/18 02:11:19;;;;;;;3.00;2.70;;;25.50;90.60;;;;;;5030180;28;20209;-36
2022/06/18 02:14:02;;;;;;;2.80;2.30;;;25.50;90.80;;;;;;5030605;28;20204;-36
2022/06/18 02:16:40;;;;;;;2.90;2.45;;;25.40;90.70;;;;;;5031764;28;20584;-36
2022/06/18 02:19:10;;;;;;;2.60;2.40;;;25.40;91.10;;;;;;5030684;28;20247;-36
2022/06/18 02:21:44;;;;;;;3.78;2.35;;;25.40;90.70;;;;;;5030430;28;20588;-36
2022/06/18 02:24:18;;;;;;;5.20;2.60;;;25.30;90.70;;;;;;5030218;28;20703;-36
2022/06/18 02:26:47;;;;;;;2.42;2.15;;;25.30;90.80;;;;;;5029195;28;20221;-36
2022/06/18 02:29:23;;;;;;;2.50;2.30;;;25.30;90.70;;;;;;5029784;28;20204;-36
2022/06/18 02:31:51;;;;;;;2.50;2.30;;;25.30;90.90;;;;;;5029662;28;20698;-36
2022/06/18 02:34:28;;;;;;;2.60;2.40;;;25.30;90.70;;;;;;5030498;28;20671;-36
2022/06/18 02:37:18;;;;;;;3.03;2.20;;;25.30;90.90;;;;;;5029313;28;20552;-36
2022/06/18 02:39:57;;;;;;;4.68;2.33;;;25.30;91.00;;;;;;5030081;28;20870;-36
2022/06/18 02:42:31;;;;;;;2.78;2.30;;;25.20;91.00;;;;;;5029995;28;20295;-36
2022/06/18 02:45:05;;;;;;;3.72;2.38;;;25.20;90.80;;;;;;5027521;28;20255;-36
2022/06/18 02:47:34;;;;;;;3.40;2.42;;;25.20;90.90;;;;;;5009467;28;20622;-36
2022/06/18 02:50:08;;;;;;;2.70;2.42;;;25.20;90.80;;;;;;5071133;28;20250;-36
2022/06/18 02:52:47;;;;;;;2.58;2.38;;;25.10;91.10;;;;;;5033885;28;20303;-36
2022/06/18 02:55:28;;;;;;;3.97;2.50;;;25.10;91.10;;;;;;5028333;28;20314;-36
2022/06/18 02:58:07;;;;;;;2.58;2.30;;;25.10;91.30;;;;;;5029080;28;20243;-35
2022/06/18 03:00:37;;;;;;;3.05;2.55;;;25.00;91.00;;;;;;5026733;28;20231;-35
2022/06/18 03:03:07;;;;;;;3.30;2.38;;;25.00;91.00;;;;;;5028856;28;20203;-35
2022/06/18 03:05:37;;;;;;;3.15;2.45;;;25.00;91.00;;;;;;5029399;28;20197;-35
2022/06/18 03:08:05;;;;;;;3.00;2.42;;;24.90;91.10;;;;;;5028898;28;20189;-35
2022/06/18 03:13:23;;;;;;;4.07;2.45;;;24.90;91.10;;;;;;5027574;28;20219;-35
2022/06/18 03:15:53;;;;;;;3.60;2.70;;;24.90;91.10;;;;;;5029182;28;20209;-35
2022/06/18 03:18:23;;;;;;;2.92;2.47;;;24.90;91.10;;;;;;5026395;28;20243;-35
2022/06/18 03:20:53;;;;;;;6.05;2.85;;;24.90;91.10;;;;;;5028963;28;20225;-35
2022/06/18 03:23:23;;;;;;;6.20;2.58;;;24.80;91.10;;;;;;5027769;28;20629;-35
2022/06/18 03:25:54;;;;;;;2.60;2.38;;;24.80;91.10;;;;;;4993606;28;20201;-35
2022/06/18 03:28:23;;;;;;;2.60;2.40;;;24.80;91.10;;;;;;5048623;28;20228;-35
2022/06/18 03:30:51;;;;;;;2.83;2.63;;;24.80;91.10;;;;;;5028773;28;20283;-35
2022/06/18 03:33:20;;;;;;;3.90;2.90;;;24.70;91.20;;;;;;5028645;28;20212;-35
2022/06/18 03:35:49;;;;;;;4.00;2.78;;;24.70;91.20;;;;;;5029029;28;20246;-35
2022/06/18 03:38:22;;;;;;;3.70;2.40;;;24.70;91.60;;;;;;5028091;28;20220;-35
2022/06/18 03:40:55;;;;;;;3.20;2.90;;;24.70;91.30;;;;;;5028857;28;20663;-35
2022/06/18 03:43:24;;;;;;;2.97;2.67;;;24.60;91.30;;;;;;5027886;28;20197;-35
2022/06/18 03:45:59;;;;;;;3.35;2.60;;;24.60;91.30;;;;;;5029543;28;20686;-35
2022/06/18 03:48:53;;;;;;;3.72;3.08;;;24.60;91.50;;;;;;5030478;28;20715;-35
2022/06/18 03:51:21;;;;;;;5.30;2.70;;;24.60;91.60;;;;;;5048370;28;20327;-35
2022/06/18 03:53:51;;;;;;;2.78;2.55;;;24.60;91.40;;;;;;5046212;28;20196;-35
2022/06/18 03:56:24;;;;;;;3.45;2.83;;;24.60;91.50;;;;;;5029652;28;20320;-35
2022/06/18 03:58:57;;;;;;;3.08;2.42;;;24.60;91.50;;;;;;5028544;28;20232;-37
2022/06/18 04:01:32;;;;;;;2.78;2.40;;;24.60;91.60;;;;;;5027887;28;20290;-37
2022/06/18 04:04:00;;;;;;;5.13;2.67;;;24.60;91.60;;;;;;5008704;28;20263;-37
2022/06/18 04:06:30;;;;;;;7.78;3.63;;;24.60;91.60;;;;;;5021980;28;20216;-37
2022/06/18 04:08:57;;;;;;;10.98;4.90;;;24.60;91.70;;;;;;5028037;28;20581;-37
2022/06/18 04:11:24;;;;;;;12.25;4.97;;;24.60;91.70;;;;;;5027981;28;20243;-37
2022/06/18 04:13:51;;;;;;;9.23;3.60;;;24.60;91.70;;;;;;5028670;28;20620;-37
2022/06/18 04:16:23;;;;;;;3.80;3.00;;;24.60;91.70;;;;;;5028213;28;20592;-37
2022/06/18 04:18:55;;;;;;;5.28;3.03;;;24.60;91.80;;;;;;5027745;28;20214;-37
2022/06/18 04:21:25;;;;;;;4.63;2.60;;;24.60;91.70;;;;;;5026541;28;20564;-37
2022/06/18 04:23:55;;;;;;;4.35;2.90;;;24.60;91.80;;;;;;5027382;28;20314;-37
2022/06/18 04:26:27;;;;;;;4.20;2.60;;;24.60;91.90;;;;;;5027928;28;20224;-37
2022/06/18 04:28:54;;;;;;;3.92;3.03;;;24.70;91.90;;;;;;5028487;28;20200;-37
2022/06/18 04:31:23;;;;;;;4.45;2.80;;;24.70;91.90;;;;;;5026790;28;20295;-37
2022/06/18 04:33:53;;;;;;;8.48;2.95;;;24.70;91.90;;;;;;5028378;28;20228;-37
2022/06/18 04:36:42;;;;;;;3.60;2.70;;;24.70;92.00;;;;;;5028510;28;20667;-37
2022/06/18 04:39:12;;;;;;;3.92;2.97;;;24.80;92.10;;;;;;5010899;28;20232;-37
2022/06/18 04:41:46;;;;;;;3.55;2.70;;;24.80;92.00;;;;;;5028182;28;20274;-37
2022/06/18 04:44:16;;;;;;;4.57;2.58;;;24.80;92.10;;;;;;5026907;28;20671;-37
2022/06/18 04:46:44;;;;;;;4.65;2.90;;;24.90;92.20;;;;;;5027725;28;20221;-37
2022/06/18 04:49:12;;;;;;;3.00;2.70;;;24.90;92.10;;;;;;5027995;28;20203;-37
2022/06/18 04:51:42;;;;;;;4.28;2.70;;;24.90;92.20;;;;;;5027409;28;20331;-37
2022/06/18 04:54:11;;;;;;;6.70;2.58;;;25.00;92.20;;;;;;5027811;28;20620;-37
2022/06/18 04:56:39;;;;;;;4.57;2.50;;;25.00;92.30;;;;;;5026143;28;20328;-37
2022/06/18 04:59:07;;;;;;;7.00;2.72;;;25.00;92.30;;;;;;5049436;28;20213;-37
2022/06/18 05:01:36;;;;;;;4.40;3.03;;;25.10;92.30;;;;;;5017699;28;20228;-37
2022/06/18 05:04:07;;;;;;;4.13;2.75;;;25.10;92.30;;;;;;5022614;28;20291;-37
2022/06/18 05:06:35;;;;;;;2.90;2.50;;;25.20;92.40;;;;;;5022163;28;20229;-37
2022/06/18 05:09:04;;;;;;;6.55;2.95;;;25.30;92.40;;;;;;5022289;28;20220;-37
2022/06/18 05:11:34;;;;;;;3.25;2.85;;;25.30;92.40;;;;;;5026484;28;20200;-37
2022/06/18 05:14:03;;;;;;;7.63;3.33;;;25.30;92.50;;;;;;5030158;28;20217;-37
2022/06/18 05:16:33;;;;;;;5.95;2.97;;;25.40;92.50;;;;;;5029071;28;20296;-37
2022/06/18 05:19:03;;;;;;;4.43;2.80;;;25.50;92.50;;;;;;5029566;28;20244;-37
2022/06/18 05:21:34;;;;;;;4.13;3.13;;;25.50;92.60;;;;;;5031101;28;20311;-37
2022/06/18 05:24:02;;;;;;;2.83;2.47;;;25.60;92.70;;;;;;5028624;28;20305;-37
2022/06/18 05:26:34;;;;;;;7.45;3.00;;;25.60;92.60;;;;;;5061947;28;20633;-37
2022/06/18 05:29:08;;;;;;;2.85;2.65;;;25.70;92.70;;;;;;5028150;28;20201;-37
2022/06/18 05:31:37;;;;;;;4.30;2.80;;;25.80;92.70;;;;;;5029965;28;20251;-38
2022/06/18 05:34:10;;;;;;;3.22;2.58;;;25.80;92.70;;;;;;5030916;28;20231;-37
2022/06/18 05:36:40;;;;;;;3.05;2.65;;;25.90;92.70;;;;;;5029077;28;20240;-37
2022/06/18 05:39:12;;;;;;;6.78;3.08;;;26.00;92.80;;;;;;5024922;28;20264;-37
2022/06/18 05:41:42;;;;;;;4.72;3.03;;;26.00;92.80;;;;;;5029099;28;20221;-38
2022/06/18 05:44:09;;;;;;;10.38;3.30;;;26.10;92.90;;;;;;5027160;28;20275;-37
2022/06/18 05:46:41;;;;;;;7.13;3.10;;;26.10;92.80;;;;;;5021217;28;20625;-37
2022/06/18 05:49:09;;;;;;;4.82;2.90;;;26.20;92.90;;;;;;5021486;28;20252;-37
2022/06/18 05:51:41;;;;;;;6.60;3.00;;;26.20;92.90;;;;;;5023658;28;20212;-38
2022/06/18 05:54:08;;;;;;;10.23;3.38;;;26.30;93.00;;;;;;5026044;28;20227;-37
2022/06/18 05:56:37;;;;;;;5.40;2.85;;;26.30;93.00;;;;;;5022307;28;20247;-38
2022/06/18 05:59:05;;;;;;;5.80;3.15;;;26.40;93.00;;;;;;5024923;28;20339;-38
2022/06/18 06:01:34;;;;;;;6.00;2.63;;;26.40;93.00;;;;;;5027636;28;20672;-37
2022/06/18 06:04:02;;;;;;;7.80;3.30;;;26.40;93.00;;;;;;5023700;28;20205;-37
2022/06/18 06:06:30;;;;;;;5.93;3.58;;;26.50;93.00;;;;;;5025793;28;20221;-37
2022/06/18 06:08:59;;;;;;;7.03;3.15;;;26.60;93.00;;;;;;5029348;28;20284;-37
2022/06/18 06:11:29;;;;;;;8.50;3.40;;;26.60;93.00;;;;;;5026827;28;20209;-36
2022/06/18 06:13:58;;;;;;;8.10;2.95;;;26.70;93.00;;;;;;5026072;28;20239;-36
2022/06/18 06:16:26;;;;;;;6.60;3.22;;;26.70;93.00;;;;;;5028381;28;20197;-36
2022/06/18 06:18:57;;;;;;;8.90;3.35;;;26.70;93.00;;;;;;5024922;28;20232;-37
2022/06/18 06:21:26;;;;;;;6.97;3.70;;;26.80;93.10;;;;;;5026441;28;20302;-37
2022/06/18 06:23:53;;;;;;;378.45;53.85;;;26.80;93.00;;;;;;5032813;28;20691;-36
2022/06/18 06:26:25;;;;;;;25.90;6.72;;;26.80;93.00;;;;;;5017512;28;20278;-36
2022/06/18 06:28:52;;;;;;;8.73;3.30;;;26.90;93.00;;;;;;5018736;28;20693;-36
2022/06/18 06:31:22;;;;;;;9.55;3.47;;;26.90;93.00;;;;;;5025867;28;20205;-36
2022/06/18 06:33:51;;;;;;;11.73;3.85;;;27.00;93.10;;;;;;5027141;28;20213;-36
2022/06/18 06:36:25;;;;;;;9.88;3.22;;;27.00;93.10;;;;;;5024928;28;20618;-36
2022/06/18 06:39:00;;;;;;;7.43;3.20;;;27.00;93.10;;;;;;5023254;28;20213;-37
2022/06/18 06:41:28;;;;;;;7.85;3.20;;;27.10;93.10;;;;;;5026956;28;20220;-36
2022/06/18 06:43:56;;;;;;;6.55;3.10;;;27.20;93.20;;;;;;5027798;28;20292;-36
2022/06/18 06:46:32;;;;;;;9.10;3.60;;;27.20;93.20;;;;;;5020272;28;20372;-36
2022/06/18 06:49:02;;;;;;;6.07;2.90;;;27.20;93.20;;;;;;5030368;28;20200;-36
2022/06/18 06:51:35;;;;;;;3.47;2.80;;;27.20;93.20;;;;;;5033392;28;20202;-36
2022/06/18 06:54:08;;;;;;;3.53;2.53;;;27.30;93.20;;;;;;5038373;28;20299;-36
2022/06/18 06:59:26;;;;;;;5.22;3.00;;;27.30;93.10;;;;;;5042605;28;20228;-36
2022/06/18 07:01:56;;;;;;;7.95;3.05;;;27.40;93.20;;;;;;5055444;28;20705;-36
2022/06/18 07:04:23;;;;;;;5.35;3.00;;;27.40;93.10;;;;;;5036357;28;20229;-36
2022/06/18 07:06:51;;;;;;;4.97;3.00;;;27.40;93.10;;;;;;5026563;28;20208;-36
2022/06/18 07:09:18;;;;;;;7.00;3.20;;;27.40;93.10;;;;;;5031763;28;20702;-36
2022/06/18 07:11:47;;;;;;;5.57;3.50;;;27.40;93.10;;;;;;5027804;28;20263;-36
2022/06/18 07:14:17;;;;;;;6.35;3.20;;;27.50;93.20;;;;;;5057541;28;20205;-36
2022/06/18 07:16:55;;;;;;;5.75;3.08;;;27.40;93.20;;;;;;5024729;28;20204;-36
2022/06/18 07:19:25;;;;;;;3.65;2.95;;;27.50;93.20;;;;;;5027594;28;20688;-36
2022/06/18 07:21:53;;;;;;;3.22;2.75;;;27.50;93.20;;;;;;5038706;28;20242;-35
2022/06/18 07:24:23;;;;;;;5.13;3.30;;;27.60;93.30;;;;;;5042558;28;20269;-35
2022/06/18 07:26:52;;;;;;;6.35;3.03;;;27.60;93.30;;;;;;5028650;28;20590;-35
2022/06/18 07:29:25;;;;;;;6.55;3.20;;;27.70;93.30;;;;;;5027340;28;20620;-35
2022/06/18 07:32:10;;;;;;;7.97;3.58;;;27.70;93.30;;;;;;5053354;28;20715;-36
2022/06/18 07:34:40;;;;;;;5.40;2.92;;;27.70;93.30;;;;;;5018770;28;20647;-36
2022/06/18 07:37:08;;;;;;;6.30;3.13;;;27.80;93.30;;;;;;5026019;28;20286;-36
2022/06/18 07:39:35;;;;;;;6.95;3.25;;;27.80;93.30;;;;;;5028048;28;20638;-36
2022/06/18 07:42:06;;;;;;;7.90;3.85;;;27.90;93.40;;;;;;5024240;28;20229;-36
2022/06/18 07:44:36;;;;;;;6.78;3.20;;;27.90;93.40;;;;;;5026920;28;20208;-37
2022/06/18 07:47:03;;;;;;;3.92;2.90;;;27.90;93.40;;;;;;5026811;28;20212;-36
2022/06/18 07:49:31;;;;;;;6.18;2.97;;;27.90;93.40;;;;;;5029251;28;20203;-36
2022/06/18 07:51:58;;;;;;;5.10;3.30;;;28.00;93.40;;;;;;5011886;28;20310;-37
2022/06/18 07:54:28;;;;;;;7.90;3.17;;;28.10;93.50;;;;;;5023738;28;20205;-36
2022/06/18 07:57:00;;;;;;;5.70;3.35;;;28.10;93.40;;;;;;5007252;28;20241;-37
2022/06/18 07:59:27;;;;;;;5.75;3.50;;;28.20;93.50;;;;;;5023316;28;20589;-37
2022/06/18 08:01:57;;;;;;;4.90;3.08;;;28.30;93.50;;;;;;5023491;28;20645;-37
2022/06/18 08:04:27;;;;;;;5.72;3.10;;;28.30;93.50;;;;;;5024501;28;20197;-36
2022/06/18 08:06:54;;;;;;;3.60;3.20;;;28.40;93.50;;;;;;5048629;28;20216;-36
2022/06/18 08:09:21;;;;;;;5.10;3.15;;;28.40;93.50;;;;;;5025263;28;20200;-36
2022/06/18 08:11:50;;;;;;;6.00;3.22;;;28.40;93.50;;;;;;5033071;28;21604;-37
2022/06/18 08:14:19;;;;;;;8.70;3.50;;;28.50;93.50;;;;;;5023130;28;20558;-37
2022/06/18 08:16:46;;;;;;;8.02;3.28;;;28.60;93.50;;;;;;5025552;28;20590;-38
2022/06/18 08:19:14;;;;;;;7.53;3.40;;;28.60;93.60;;;;;;5021687;28;20208;-37
2022/06/18 08:21:49;;;;;;;6.80;3.42;;;28.60;93.50;;;;;;5043775;28;20633;-37
2022/06/18 08:24:20;;;;;;;5.13;2.92;;;28.70;93.60;;;;;;5018751;28;20693;-37
2022/06/18 08:26:50;;;;;;;6.75;3.35;;;28.70;93.60;;;;;;5027215;28;20223;-37
2022/06/18 08:29:21;;;;;;;5.43;3.35;;;28.80;93.70;;;;;;5020170;28;20263;-38
2022/06/18 08:31:48;;;;;;;8.00;3.50;;;28.80;93.50;;;;;;5026950;28;20209;-37
2022/06/18 08:34:15;;;;;;;4.95;3.47;;;28.90;93.60;;;;;;5017353;28;20223;-37
2022/06/18 08:36:53;;;;;;;5.32;3.50;;;28.90;93.60;;;;;;5026102;28;20216;-37
2022/06/18 08:39:23;;;;;;;6.57;3.45;;;28.90;93.50;;;;;;5027274;28;20209;-36
2022/06/18 08:42:03;;;;;;;6.57;3.60;;;29.00;93.50;;;;;;5027343;28;20224;-37
2022/06/18 08:45:02;;;;;;;6.97;3.38;;;29.00;93.50;;;;;;5028217;28;20570;-37
2022/06/18 08:47:45;;;;;;;5.40;3.42;;;29.00;93.50;;;;;;5011388;28;20202;-37
2022/06/18 08:50:50;;;;;;;7.38;3.47;;;29.10;93.50;;;;;;5017918;28;20798;-37
2022/06/18 08:53:53;;;;;;;5.22;3.33;;;29.10;93.40;;;;;;5020555;28;20296;-37
2022/06/18 08:56:54;;;;;;;5.95;3.60;;;29.20;93.50;;;;;;5027105;28;20207;-37
2022/06/18 08:59:27;;;;;;;4.45;3.10;;;29.20;93.40;;;;;;5016599;28;20213;-37
2022/06/18 09:02:14;;;;;;;6.88;3.55;;;29.20;93.30;;;;;;5029028;28;20223;-37
2022/06/18 09:04:57;;;;;;;7.22;3.47;;;29.20;93.30;;;;;;5030356;28;20551;-37
2022/06/18 09:07:50;;;;;;;6.18;3.38;;;29.30;93.40;;;;;;5027804;28;20315;-37
2022/06/18 09:10:52;;;;;;;10.35;4.00;;;29.30;93.40;;;;;;5027255;28;20291;-37
2022/06/18 09:13:57;;;;;;;6.05;3.58;;;29.40;93.40;;;;;;5016615;28;21024;-37
2022/06/18 09:16:43;;;;;;;6.10;3.30;;;29.50;93.30;;;;;;4990107;28;20241;-38
2022/06/18 09:19:17;;;;;;;7.30;2.90;;;29.50;93.40;;;;;;5022141;28;20522;-38
2022/06/18 09:21:58;;;;;;;5.85;3.25;;;29.60;93.50;;;;;;5027585;28;20225;-37
2022/06/18 09:24:37;;;;;;;6.88;3.40;;;29.60;93.50;;;;;;5029630;28;20223;-37
2022/06/18 09:27:18;;;;;;;7.53;3.17;;;29.70;93.50;;;;;;5025353;28;20209;-37
2022/06/18 09:29:54;;;;;;;6.53;3.10;;;29.70;93.50;;;;;;5027809;28;20213;-37
2022/06/18 09:32:33;;;;;;;8.65;3.50;;;29.80;93.50;;;;;;5029645;28;20208;-37
2022/06/18 09:35:15;;;;;;;6.07;3.03;;;29.80;93.50;;;;;;5020894;28;20599;-38
2022/06/18 09:38:02;;;;;;;8.85;3.15;;;29.90;93.50;;;;;;5016482;28;20212;-39
2022/06/18 09:40:34;;;;;;;5.88;2.80;;;30.00;93.50;;;;;;5030544;28;20209;-39
2022/06/18 09:43:07;;;;;;;5.75;3.30;;;30.00;93.50;;;;;;5026200;28;20707;-39
2022/06/18 09:45:45;;;;;;;5.47;3.03;;;30.10;93.50;;;;;;5026471;28;20189;-37
2022/06/18 09:48:13;;;;;;;18.48;4.25;;;30.10;93.40;;;;;;5024610;28;20206;-39
2022/06/18 09:50:46;;;;;;;5.20;2.90;;;30.20;93.50;;;;;;5027978;28;20201;-38
2022/06/18 09:53:27;;;;;;;14.57;3.40;;;30.30;93.50;;;;;;5026990;28;20576;-38
2022/06/18 09:56:07;;;;;;;9.52;3.10;;;30.30;93.60;;;;;;5016988;28;20212;-38
2022/06/18 09:59:01;;;;;;;9.32;3.33;;;30.40;93.50;;;;;;5021149;28;20712;-38
2022/06/18 10:01:41;;;;;;;8.43;2.92;;;30.40;93.40;;;;;;5014568;28;20226;-38
2022/06/18 10:07:04;;;;;;;6.60;3.13;;;30.50;93.50;;;;;;5018459;28;20204;-38
2022/06/18 10:09:44;;;;;;;5.00;2.90;;;30.60;93.50;;;;;;5026944;28;20221;-38
2022/06/18 10:12:15;;;;;;;5.57;3.00;;;30.60;93.50;;;;;;5012601;28;20296;-37
2022/06/18 10:14:43;;;;;;;7.70;3.13;;;30.70;93.60;;;;;;5021283;28;20205;-38
2022/06/18 10:17:55;;;;;;;6.22;3.15;;;30.70;93.50;;;;;;5021742;28;20209;-38
2022/06/18 10:20:28;;;;;;;6.50;2.72;;;30.90;93.60;;;;;;5013591;28;20221;-38
2022/06/18 10:23:03;;;;;;;6.25;3.00;;;30.90;93.50;;;;;;5027918;28;20225;-38
2022/06/18 10:25:41;;;;;;;6.03;3.03;;;30.90;93.80;;;;;;5023221;28;20641;-38
2022/06/18 10:28:25;;;;;;;7.63;3.08;;;31.00;93.60;;;;;;5027583;28;20213;-38
2022/06/18 10:31:13;;;;;;;5.80;3.05;;;31.10;93.60;;;;;;5026420;28;20211;-38
2022/06/18 10:34:10;;;;;;;4.35;2.78;;;31.20;93.70;;;;;;5024414;28;20197;-38
2022/06/18 10:36:48;;;;;;;7.10;3.05;;;31.20;93.70;;;;;;5018128;28;20220;-38
2022/06/18 10:39:19;;;;;;;4.43;2.63;;;31.30;93.70;;;;;;5025588;28;20204;-38
2022/06/18 10:42:03;;;;;;;5.18;2.72;;;31.40;93.80;;;;;;5025584;28;20636;-38
2022/06/18 10:44:52;;;;;;;7.90;2.80;;;31.40;93.80;;;;;;5037062;28;20215;-39
2022/06/18 10:47:32;;;;;;;6.18;2.95;;;31.50;93.90;;;;;;5030370;28;20295;-39
2022/06/18 10:50:04;;;;;;;4.32;2.65;;;31.60;93.80;;;;;;5027867;28;20209;-39
2022/06/18 10:52:35;;;;;;;5.55;2.67;;;31.60;93.80;;;;;;5039832;28;20563;-38
2022/06/18 10:55:08;;;;;;;5.05;2.67;;;31.70;93.90;;;;;;5025849;28;20216;-38
2022/06/18 10:57:37;;;;;;;4.68;2.90;;;31.80;94.00;;;;;;5026353;28;20786;-38
2022/06/18 11:00:29;;;;;;;4.68;3.17;;;31.80;94.00;;;;;;5054593;28;20680;-38
2022/06/18 11:02:59;;;;;;;4.32;2.78;;;31.90;94.00;;;;;;5026346;28;20237;-39
2022/06/18 11:05:34;;;;;;;4.22;2.90;;;32.00;94.00;;;;;;5024407;28;20193;-38
2022/06/18 11:08:18;;;;;;;5.88;2.80;;;32.00;94.00;;;;;;5017860;28;20212;-38
2022/06/18 11:10:52;;;;;;;4.82;2.90;;;32.10;94.00;;;;;;5023568;28;20193;-39
2022/06/18 11:13:21;;;;;;;4.85;2.88;;;32.20;94.00;;;;;;5027333;28;20629;-39
2022/06/18 11:15:51;;;;;;;5.30;2.80;;;32.20;94.00;;;;;;5025022;28;20201;-39
2022/06/18 11:18:24;;;;;;;4.40;2.50;;;32.30;94.00;;;;;;5027693;28;20209;-39
2022/06/18 11:21:18;;;;;;;5.07;3.08;;;32.30;94.00;;;;;;5015292;28;20797;-39
2022/06/18 11:23:53;;;;;;;4.88;2.97;;;32.40;93.90;;;;;;5022056;28;20278;-39
2022/06/18 11:26:41;;;;;;;4.05;2.60;;;32.40;93.80;;;;;;5021699;28;20201;-39
2022/06/18 11:29:19;;;;;;;3.20;2.55;;;32.40;93.90;;;;;;5016319;28;20205;-39
2022/06/18 11:31:54;;;;;;;5.25;2.75;;;32.50;93.90;;;;;;5019924;28;20713;-39
2022/06/18 11:34:39;;;;;;;3.53;2.60;;;32.60;93.90;;;;;;5026724;28;20212;-40
2022/06/18 11:37:30;;;;;;;4.47;2.50;;;32.60;93.80;;;;;;5026645;28;20687;-39
2022/06/18 11:40:18;;;;;;;3.45;2.40;;;32.70;94.10;;;;;;5023840;28;20714;-39
2022/06/18 11:42:57;;;;;;;4.35;2.38;;;32.70;93.70;;;;;;5024032;28;20307;-38
2022/06/18 11:45:55;;;;;;;3.97;2.50;;;32.70;93.70;;;;;;5014722;28;20671;-38
2022/06/18 11:48:30;;;;;;;4.90;2.85;;;32.70;93.50;;;;;;5014498;28;20240;-38
2022/06/18 11:51:26;;;;;;;4.40;2.70;;;32.80;93.50;;;;;;5024068;28;20212;-38
2022/06/18 11:54:10;;;;;;;3.72;2.70;;;32.80;93.60;;;;;;5020821;28;20600;-39
2022/06/18 11:57:05;;;;;;;6.72;2.85;;;32.90;93.40;;;;;;5019346;28;20239;-38
2022/06/18 11:59:41;;;;;;;5.00;2.80;;;32.90;93.30;;;;;;5014968;28;20749;-38
2022/06/18 12:02:31;;;;;;;4.25;2.80;;;33.00;93.50;;;;;;5025138;28;20308;-38
2022/06/18 12:05:11;;;;;;;4.20;2.88;;;33.00;93.50;;;;;;5013482;28;20225;-38
2022/06/18 12:07:45;;;;;;;4.82;2.50;;;33.10;93.50;;;;;;5023958;28;20212;-38
2022/06/18 12:10:15;;;;;;;7.32;2.67;;;33.10;93.40;;;;;;5024686;28;20204;-38
2022/06/18 12:13:13;;;;;;;5.60;2.67;;;33.10;93.20;;;;;;5025737;28;20208;-38
2022/06/18 12:15:51;;;;;;;6.43;2.90;;;33.20;93.20;;;;;;5015219;28;20223;-38
2022/06/18 12:18:29;;;;;;;4.82;2.70;;;33.20;93.30;;;;;;5012969;28;20204;-39
2022/06/18 12:21:18;;;;;;;5.53;3.00;;;33.30;93.20;;;;;;5022872;28;20250;-39
2022/06/18 12:24:01;;;;;;;5.55;2.95;;;33.30;93.10;;;;;;5032146;28;20260;-39
2022/06/18 12:26:39;;;;;;;5.35;3.00;;;33.40;93.20;;;;;;5008988;28;20205;-39
2022/06/18 12:29:06;;;;;;;9.57;2.83;;;33.40;93.10;;;;;;5025367;28;20209;-38
2022/06/18 12:31:45;;;;;;;4.80;2.67;;;33.50;93.10;;;;;;5021265;28;20208;-38
2022/06/18 12:34:22;;;;;;;3.50;2.30;;;33.50;93.20;;;;;;5025383;28;20544;-38
2022/06/18 12:37:13;;;;;;;2.58;2.10;;;33.60;93.40;;;;;;5021232;28;20216;-38
2022/06/18 12:40:02;;;;;;;4.07;2.58;;;33.70;93.40;;;;;;5021114;28;20220;-38
2022/06/18 12:42:40;;;;;;;6.75;3.03;;;33.80;93.40;;;;;;5026292;28;20209;-39
2022/06/18 12:45:17;;;;;;;4.65;2.50;;;33.90;93.40;;;;;;5020143;28;20236;-38
2022/06/18 12:48:07;;;;;;;5.35;3.00;;;33.90;93.40;;;;;;5028601;28;20231;-38
2022/06/18 12:50:47;;;;;;;5.32;2.70;;;34.00;93.10;;;;;;5022897;28;20220;-38
2022/06/18 12:53:24;;;;;;;4.82;2.75;;;34.00;93.00;;;;;;5020327;28;20593;-38
2022/06/18 12:56:06;;;;;;;5.07;2.53;;;34.10;93.00;;;;;;5022821;28;20307;-38
2022/06/18 12:58:54;;;;;;;4.03;2.47;;;34.10;93.00;;;;;;5000224;28;20689;-38
2022/06/18 13:01:30;;;;;;;4.57;2.65;;;34.20;93.10;;;;;;5010737;28;20216;-39
2022/06/18 13:04:11;;;;;;;3.25;2.33;;;34.30;93.20;;;;;;5009513;28;20298;-38
2022/06/18 13:06:50;;;;;;;4.80;2.50;;;34.30;92.50;;;;;;5019571;28;20660;-38
2022/06/18 13:09:29;;;;;;;5.88;2.80;;;34.40;92.90;;;;;;5014912;28;20209;-38
2022/06/18 13:12:17;;;;;;;4.80;2.88;;;34.50;92.70;;;;;;5020113;28;20205;-38
2022/06/18 13:15:07;;;;;;;5.18;2.40;;;34.50;92.70;;;;;;5033602;28;20228;-39
2022/06/18 13:18:12;;;;;;;3.40;2.72;;;34.50;92.80;;;;;;5017212;28;20217;-39
2022/06/18 13:20:49;;;;;;;5.13;3.05;;;34.50;93.00;;;;;;5036184;28;20197;-39
2022/06/18 13:29:20;;;;;;;4.68;2.30;;;34.80;93.00;;;;;;5017548;28;20205;-39
2022/06/18 13:32:03;;;;;;;3.30;2.47;;;34.80;93.10;;;;;;5027413;28;20703;-40
2022/06/18 13:34:53;;;;;;;5.43;3.08;;;34.90;93.00;;;;;;5028185;28;20256;-39
2022/06/18 13:37:40;;;;;;;3.80;3.08;;;35.00;92.90;;;;;;5025871;28;20236;-39
2022/06/18 13:40:14;;;;;;;5.63;2.85;;;35.10;92.80;;;;;;5012809;28;20209;-40
2022/06/18 13:43:00;;;;;;;6.43;3.00;;;35.10;92.70;;;;;;5028231;28;20216;-40
2022/06/18 13:45:56;;;;;;;5.88;2.83;;;35.10;92.50;;;;;;5025951;28;20209;-39